createdAt,value
2019-03-21T00:00:30.255Z,11.27
2019-03-21T00:04:33.252Z,11.33
2019-03-21T00:08:36.223Z,11.70
2019-03-21T00:12:39.218Z,12.10
2019-03-21T00:16:43.440Z,13.30
2019-03-21T00:20:46.448Z,12.67
2019-03-21T00:24:49.427Z,11.47
2019-03-21T00:28:52.489Z,10.83
2019-03-21T00:32:55.742Z,12.93
2019-03-21T00:36:58.830Z,12.67
2019-03-21T00:41:01.818Z,14.33
2019-03-21T00:45:10.771Z,13.07
2019-03-21T00:49:13.776Z,12.30
2019-03-21T00:53:16.788Z,14.60
2019-03-21T00:57:19.867Z,13.33
2019-03-21T01:01:22.883Z,12.73
2019-03-21T01:05:26.311Z,11.70
2019-03-21T01:09:29.310Z,14.40
2019-03-21T01:13:35.069Z,13.37
2019-03-21T01:17:39.139Z,12.90
2019-03-21T01:21:42.138Z,13.23
2019-03-21T01:25:51.755Z,13.40
2019-03-21T01:29:54.749Z,12.47
2019-03-21T01:33:57.752Z,11.80
2019-03-21T01:38:00.778Z,12.90
2019-03-21T01:42:03.794Z,12.57
2019-03-21T01:46:13.703Z,12.00
2019-03-21T01:50:18.910Z,12.20
2019-03-21T01:54:21.900Z,13.37
2019-03-21T01:58:24.883Z,12.20
2019-03-21T02:02:27.868Z,11.63
2019-03-21T02:06:30.858Z,13.43
2019-03-21T02:10:34.637Z,12.63
2019-03-21T02:14:37.631Z,12.00
2019-03-21T02:18:41.645Z,12.17
2019-03-21T02:22:44.638Z,13.30
2019-03-21T02:26:47.641Z,12.37
2019-03-21T02:30:51.706Z,12.87
2019-03-21T02:34:54.744Z,12.87
2019-03-21T02:38:57.796Z,12.57
2019-03-21T02:43:00.794Z,12.37
2019-03-21T02:47:03.806Z,10.40
2019-03-21T02:51:06.894Z,11.57
2019-03-21T02:55:10.382Z,12.80
2019-03-21T02:59:13.628Z,12.27
2019-03-21T03:03:16.693Z,11.70
2019-03-21T03:07:19.683Z,11.03
2019-03-21T03:11:23.310Z,11.10
2019-03-21T03:15:28.984Z,12.53
2019-03-21T03:19:32.550Z,11.60
2019-03-21T03:23:35.548Z,10.20
2019-03-21T03:27:38.639Z,11.07
2019-03-21T03:31:41.675Z,12.07
2019-03-21T03:35:44.862Z,10.53
2019-03-21T03:39:47.854Z,10.57
2019-03-21T03:43:50.952Z,10.97
2019-03-21T03:47:53.957Z,10.53
2019-03-21T03:51:56.951Z,10.80
2019-03-21T03:56:00.065Z,11.37
2019-03-21T04:00:06.856Z,9.73
2019-03-21T04:04:09.946Z,11.37
2019-03-21T04:08:12.924Z,10.33
2019-03-21T04:12:16.232Z,10.40
2019-03-21T04:16:19.236Z,11.20
2019-03-21T04:20:48.944Z,10.70
2019-03-21T04:24:51.907Z,9.83
2019-03-21T04:28:54.904Z,9.23
2019-03-21T04:32:57.908Z,10.60
2019-03-21T04:37:00.923Z,12.17
2019-03-21T04:41:03.916Z,11.07
2019-03-21T04:45:10.246Z,10.73
2019-03-21T04:49:13.225Z,10.77
2019-03-21T04:53:16.283Z,10.50
2019-03-21T04:57:19.292Z,12.20
2019-03-21T05:01:22.280Z,12.03
2019-03-21T05:05:25.282Z,12.13
2019-03-21T05:09:28.290Z,12.20
2019-03-21T05:13:31.300Z,11.03
2019-03-21T05:17:34.377Z,11.40
2019-03-21T05:21:38.097Z,11.20
2019-03-21T05:25:41.188Z,11.23
2019-03-21T05:29:44.294Z,9.87
2019-03-21T05:33:47.383Z,12.80
2019-03-21T05:37:50.375Z,10.63
2019-03-21T05:41:53.525Z,11.90
2019-03-21T05:45:56.840Z,12.17
2019-03-21T05:49:59.967Z,12.40
2019-03-21T05:54:03.066Z,12.43
2019-03-21T05:58:06.063Z,10.97
2019-03-21T06:02:09.094Z,10.80
2019-03-21T06:06:31.258Z,10.00
2019-03-21T06:10:34.265Z,10.87
2019-03-21T06:14:49.931Z,10.60
2019-03-21T06:19:11.378Z,11.27
2019-03-21T06:23:48.596Z,10.60
2019-03-21T06:27:51.619Z,10.03
2019-03-21T06:31:54.735Z,10.87
2019-03-21T06:35:57.930Z,9.90
2019-03-21T06:40:00.937Z,9.30
2019-03-21T06:44:04.151Z,9.37
2019-03-21T06:48:07.158Z,9.47
2019-03-21T06:52:10.153Z,8.33
2019-03-21T06:56:13.149Z,8.40
2019-03-21T07:00:16.143Z,9.20
2019-03-21T07:04:19.155Z,9.23
2019-03-21T07:08:22.142Z,10.33
2019-03-21T07:12:25.160Z,9.37
2019-03-21T07:16:28.152Z,10.30
2019-03-21T07:20:31.218Z,9.60
2019-03-21T07:24:35.262Z,8.47
2019-03-21T07:28:38.712Z,8.10
2019-03-21T07:32:41.899Z,8.60
2019-03-21T07:36:44.901Z,7.80
2019-03-21T07:40:47.903Z,9.03
2019-03-21T07:44:50.907Z,8.87
2019-03-21T07:48:53.916Z,8.77
2019-03-21T07:52:56.905Z,9.27
2019-03-21T07:57:00.002Z,8.93
2019-03-21T08:01:03.022Z,9.20
2019-03-21T08:05:07.319Z,8.00
2019-03-21T08:09:10.317Z,8.10
2019-03-21T08:13:13.314Z,8.87
2019-03-21T08:17:16.309Z,8.00
2019-03-21T08:21:19.331Z,7.00
2019-03-21T08:25:22.952Z,5.77
2019-03-21T08:29:25.959Z,5.97
2019-03-21T08:33:28.952Z,4.47
2019-03-21T08:37:32.005Z,4.37
2019-03-21T08:41:35.005Z,5.10
2019-03-21T08:45:38.108Z,5.00
2019-03-21T08:49:41.099Z,6.07
2019-03-21T08:53:44.109Z,5.30
2019-03-21T08:57:47.131Z,4.87
2019-03-21T09:01:50.123Z,5.30
2019-03-21T09:05:53.119Z,6.03
2019-03-21T09:09:56.123Z,4.80
2019-03-21T09:13:59.127Z,4.97
2019-03-21T09:18:02.163Z,4.90
2019-03-21T09:22:05.155Z,5.00
2019-03-21T09:26:08.361Z,5.00
2019-03-21T09:30:13.164Z,5.37
2019-03-21T09:34:16.174Z,4.33
2019-03-21T09:38:19.175Z,4.80
2019-03-21T09:42:22.193Z,5.73
2019-03-21T09:46:25.209Z,4.70
2019-03-21T09:50:28.808Z,6.17
2019-03-21T09:54:31.854Z,5.40
2019-03-21T09:58:34.845Z,5.03
2019-03-21T10:02:37.852Z,4.63
2019-03-21T10:06:40.963Z,5.23
2019-03-21T10:10:43.954Z,4.83
2019-03-21T10:14:46.949Z,3.90
2019-03-21T10:18:49.963Z,3.20
2019-03-21T10:23:02.971Z,3.40
2019-03-21T10:27:07.258Z,3.70
2019-03-21T10:31:10.288Z,2.80
2019-03-21T10:35:15.462Z,3.27
2019-03-21T10:39:18.771Z,3.10
2019-03-21T10:43:21.802Z,2.93
2019-03-21T10:47:24.803Z,3.50
2019-03-21T10:51:27.854Z,3.97
2019-03-21T10:55:30.927Z,3.63
2019-03-21T10:59:33.927Z,3.77
2019-03-21T11:03:36.934Z,4.10
2019-03-21T11:07:39.933Z,3.53
2019-03-21T11:11:43.028Z,3.80
2019-03-21T11:15:46.032Z,4.17
2019-03-21T11:19:49.272Z,4.23
2019-03-21T11:23:52.377Z,3.50
2019-03-21T11:27:56.464Z,3.83
2019-03-21T11:31:59.751Z,4.00
2019-03-21T11:36:08.929Z,3.47
2019-03-21T11:40:12.118Z,4.50
2019-03-21T11:44:29.916Z,3.90
2019-03-21T11:48:39.666Z,4.10
2019-03-21T11:52:43.083Z,4.33
2019-03-21T11:56:52.262Z,4.10
2019-03-21T12:00:55.626Z,4.63
2019-03-21T12:04:58.677Z,3.67
2019-03-21T12:09:02.451Z,4.13
2019-03-21T12:13:12.424Z,2.80
2019-03-21T12:17:15.635Z,3.77
2019-03-21T12:21:18.689Z,3.73
2019-03-21T12:25:21.733Z,3.10
2019-03-21T12:29:25.560Z,3.30
2019-03-21T12:33:28.565Z,3.47
2019-03-21T12:37:31.579Z,3.93
2019-03-21T12:41:34.569Z,3.93
2019-03-21T12:45:37.595Z,3.70
2019-03-21T12:49:41.606Z,4.20
2019-03-21T12:53:44.610Z,4.00
2019-03-21T12:57:47.610Z,3.70
2019-03-21T13:01:50.614Z,3.50
2019-03-21T13:05:53.691Z,4.10
2019-03-21T13:09:56.734Z,4.23
2019-03-21T13:13:59.828Z,3.90
2019-03-21T13:18:03.203Z,3.93
2019-03-21T13:22:06.271Z,3.87
2019-03-21T13:26:09.271Z,4.40
2019-03-21T13:30:14.050Z,3.90
2019-03-21T13:34:17.076Z,3.87
2019-03-21T13:38:20.123Z,4.00
2019-03-21T13:42:23.149Z,3.57
2019-03-21T13:46:26.208Z,3.50
2019-03-21T13:50:29.212Z,4.10
2019-03-21T13:54:32.233Z,3.70
2019-03-21T13:58:35.365Z,4.00
2019-03-21T14:02:38.407Z,3.50
2019-03-21T14:06:41.395Z,3.30
2019-03-21T14:10:44.388Z,4.17
2019-03-21T14:14:47.385Z,3.10
2019-03-21T14:18:50.488Z,3.60
2019-03-21T14:22:53.489Z,3.53
2019-03-21T14:26:56.604Z,3.60
2019-03-21T14:31:01.324Z,3.40
2019-03-21T14:35:05.839Z,3.30
2019-03-21T14:39:08.859Z,4.13
2019-03-21T14:43:11.854Z,3.33
2019-03-21T14:47:36.061Z,4.10
2019-03-21T14:51:34.926Z,4.00
2019-03-21T14:55:47.121Z,3.97
2019-03-21T14:59:42.918Z,3.67
2019-03-21T15:03:45.923Z,5.20
2019-03-21T15:07:48.948Z,4.03
2019-03-21T15:11:52.014Z,3.87
2019-03-21T15:15:55.158Z,4.20
2019-03-21T15:19:58.158Z,3.70
2019-03-21T15:24:02.267Z,3.57
2019-03-21T15:28:05.262Z,3.53
2019-03-21T15:32:08.620Z,4.60
2019-03-21T15:36:11.619Z,4.37
2019-03-21T15:40:15.821Z,4.40
2019-03-21T15:44:18.833Z,5.23
2019-03-21T15:48:21.842Z,4.23
2019-03-21T15:52:24.836Z,5.23
2019-03-21T15:56:27.843Z,4.87
2019-03-21T16:00:39.447Z,4.20
2019-03-21T16:04:42.713Z,5.00
2019-03-21T16:08:45.738Z,4.60
2019-03-21T16:12:48.750Z,6.30
2019-03-21T16:16:51.733Z,6.27
2019-03-21T16:20:54.747Z,5.73
2019-03-21T16:24:57.746Z,5.37
2019-03-21T16:29:00.770Z,5.80
2019-03-21T16:33:04.483Z,4.97
2019-03-21T16:37:07.487Z,6.13
2019-03-21T16:41:10.551Z,6.70
2019-03-21T16:45:14.863Z,6.37
2019-03-21T16:49:26.707Z,8.20
2019-03-21T16:53:29.788Z,7.20
2019-03-21T16:57:33.805Z,9.33
2019-03-21T17:01:37.925Z,8.70
2019-03-21T17:05:42.057Z,8.43
2019-03-21T17:09:45.052Z,14.87
2019-03-21T17:13:48.157Z,8.20
2019-03-21T17:17:51.164Z,8.20
2019-03-21T17:21:54.199Z,8.60
2019-03-21T17:25:57.211Z,8.90
2019-03-21T17:30:05.395Z,8.90
2019-03-21T17:34:10.037Z,8.37
2019-03-21T17:42:23.358Z,9.70
2019-03-21T17:46:26.438Z,8.70
2019-03-21T17:50:29.436Z,8.90
2019-03-21T17:54:41.699Z,9.67
2019-03-21T17:58:43.362Z,8.60
2019-03-21T18:02:46.359Z,8.80
2019-03-21T18:06:49.359Z,9.40
2019-03-21T18:10:52.402Z,9.87
2019-03-21T18:14:55.415Z,8.70
2019-03-21T18:18:58.420Z,9.37
2019-03-21T18:23:01.459Z,8.50
2019-03-21T18:27:04.567Z,8.07
2019-03-21T18:31:07.677Z,11.00
2019-03-21T18:35:12.452Z,29.77
2019-03-21T18:39:15.447Z,29.70
2019-03-21T18:43:18.479Z,11.30
2019-03-21T18:47:21.479Z,10.47
2019-03-21T18:51:24.472Z,8.67
2019-03-21T18:55:27.567Z,7.67
2019-03-21T18:59:30.691Z,7.60
2019-03-21T19:03:33.755Z,7.70
2019-03-21T19:07:36.759Z,7.73
2019-03-21T19:11:39.906Z,7.00
2019-03-21T19:15:42.902Z,9.40
2019-03-21T19:19:46.035Z,7.20
2019-03-21T19:23:49.192Z,8.00
2019-03-21T19:27:52.249Z,9.00
2019-03-21T19:31:55.263Z,7.67
2019-03-21T19:35:59.709Z,9.80
2019-03-21T19:40:08.378Z,8.73
2019-03-21T19:44:11.492Z,10.17
2019-03-21T19:48:14.530Z,9.27
2019-03-21T19:52:17.636Z,9.20
2019-03-21T19:56:20.840Z,10.63
2019-03-21T20:00:23.969Z,10.20
2019-03-21T20:04:27.008Z,8.33
2019-03-21T20:08:30.097Z,9.57
2019-03-21T20:12:33.948Z,10.23
2019-03-21T20:16:37.035Z,10.37
2019-03-21T20:20:40.238Z,11.50
2019-03-21T20:24:43.375Z,9.70
2019-03-21T20:28:46.465Z,10.93
2019-03-21T20:32:49.699Z,11.30
2019-03-21T20:36:52.971Z,11.27
2019-03-21T20:40:56.118Z,13.50
2019-03-21T20:44:59.207Z,13.20
2019-03-21T20:49:02.366Z,12.37
2019-03-21T20:53:05.500Z,15.57
2019-03-21T20:57:08.577Z,19.63
2019-03-21T21:01:11.582Z,18.47
2019-03-21T21:05:14.601Z,18.23
2019-03-21T21:09:17.701Z,20.10
2019-03-21T21:13:20.789Z,20.80
2019-03-21T21:17:23.878Z,18.10
2019-03-21T21:21:26.978Z,19.33
2019-03-21T21:25:32.051Z,20.17
2019-03-21T21:29:35.054Z,17.90
2019-03-21T21:33:38.050Z,17.60
2019-03-21T21:37:41.988Z,17.70
2019-03-21T21:41:45.002Z,18.47
2019-03-21T21:45:48.034Z,15.37
2019-03-21T21:49:51.027Z,15.60
2019-03-21T21:53:54.028Z,16.87
2019-03-21T21:57:57.072Z,16.13
2019-03-21T22:02:00.072Z,17.87
2019-03-21T22:06:03.222Z,18.30
2019-03-21T22:10:07.307Z,19.30
2019-03-21T22:14:10.309Z,20.43
2019-03-21T22:18:13.321Z,34.07
2019-03-21T22:22:19.146Z,21.20
2019-03-21T22:26:29.461Z,18.40
2019-03-21T22:30:26.386Z,18.93
2019-03-21T22:34:29.629Z,18.70
2019-03-21T22:38:33.106Z,17.90
2019-03-21T22:42:36.219Z,16.07
2019-03-21T22:46:39.235Z,16.43
2019-03-21T22:50:42.235Z,15.50
2019-03-21T22:54:45.327Z,15.37
2019-03-21T22:58:48.749Z,13.50
2019-03-21T23:02:51.757Z,14.70
2019-03-21T23:06:54.807Z,13.60
2019-03-21T23:10:57.911Z,12.60
2019-03-21T23:15:00.916Z,12.67
2019-03-21T23:19:03.918Z,12.57
2019-03-21T23:23:06.918Z,13.23
2019-03-21T23:27:09.986Z,16.80
2019-03-21T23:31:12.983Z,14.33
2019-03-21T23:35:16.034Z,12.23
2019-03-21T23:39:19.520Z,13.00
2019-03-21T23:43:22.550Z,13.13
2019-03-21T23:47:25.559Z,12.90
2019-03-21T23:51:28.555Z,11.27
2019-03-21T23:55:31.556Z,10.90
2019-03-21T23:59:34.559Z,11.80
